^^
Your Local Weather - Clay, NY Station Historical Data
Daily Summary for January 20, 2018 Units:  Both    English   Metric
« Previous Day
Next Day »
Daily Weekly Monthly Yearly Custom
  High: Low: Average:
Temperature: 45.2 °F /  7.3 °C 27.3 °F /  -2.6 °C 38.5 °F /  3.6 °C
Dew Point: 29.0 °F /  -1.7 °C 21.8 °F /  -5.7 °C 25.7 °F /  -3.5 °C
Humidity: 81% 52% 61%
Wind Speed: 7.0mph /  11.3km/h - 2.8mph /  4.5km/h
Wind Gust: 17.0mph /  27.4km/h - -
Wind- - WSW
Pressure: 30.01 in /  1016.1 hPa 29.69 in /  1005.3 hPa -
Precipitation: 0.27 in /  6.86 mm    
Historical Graphs
 
 
Tabular Data for January 20, 2018
Time Temperature Dew Point Pressure Wind Wind Speed Wind Gust Humidity Rainfall Rate (Hourly) solar
00:06 27.3 °F /  -2.6 °C 22.2 °F /  -5.4 °C 29.73in /  1006.7hPa SSW 1.0mph /  1.6km/h 5.0mph /  8km/h 81% 0.00in /  0mm 0 W/m2
00:12 30.2 °F /  -1 °C 24.2 °F /  -4.3 °C 29.73in /  1006.7hPa SSW 1.0mph /  1.6km/h 3.0mph /  4.8km/h 78% 0.00in /  0mm 0 W/m2
00:18 34.0 °F /  1.1 °C 25.2 °F /  -3.8 °C 29.72in /  1006.3hPa SSW 2.0mph /  3.2km/h 3.0mph /  4.8km/h 70% 0.00in /  0mm 0 W/m2
00:23 35.4 °F /  1.9 °C 25.2 °F /  -3.8 °C 29.72in /  1006.3hPa SSW 2.0mph /  3.2km/h 4.0mph /  6.4km/h 66% 0.00in /  0mm 0 W/m2
00:30 36.3 °F /  2.4 °C 24.9 °F /  -3.9 °C 29.71in /  1006hPa SSW 3.0mph /  4.8km/h 3.0mph /  4.8km/h 63% 0.00in /  0mm 0 W/m2
00:36 36.6 °F /  2.6 °C 24.4 °F /  -4.2 °C 29.70in /  1005.6hPa SSW 3.0mph /  4.8km/h 3.0mph /  4.8km/h 61% 0.00in /  0mm 0 W/m2
00:42 37.0 °F /  2.8 °C 24.4 °F /  -4.2 °C 29.71in /  1006hPa SSW 3.0mph /  4.8km/h 3.0mph /  4.8km/h 60% 0.00in /  0mm 0 W/m2
00:48 37.2 °F /  2.9 °C 24.2 °F /  -4.3 °C 29.70in /  1005.6hPa SSE 3.0mph /  4.8km/h 3.0mph /  4.8km/h 59% 0.00in /  0mm 0 W/m2
00:54 37.2 °F /  2.9 °C 23.8 °F /  -4.6 °C 29.70in /  1005.6hPa SSW 2.0mph /  3.2km/h 2.0mph /  3.2km/h 58% 0.00in /  0mm 0 W/m2
01:00 37.1 °F /  2.8 °C 23.7 °F /  -4.6 °C 29.70in /  1005.6hPa South 3.0mph /  4.8km/h 3.0mph /  4.8km/h 58% 0.00in /  0mm 0 W/m2
01:06 37.1 °F /  2.8 °C 23.7 °F /  -4.6 °C 29.70in /  1005.6hPa South 3.0mph /  4.8km/h 5.0mph /  8km/h 58% 0.00in /  0mm 0 W/m2
01:12 37.2 °F /  2.9 °C 23.4 °F /  -4.8 °C 29.70in /  1005.6hPa SW 3.0mph /  4.8km/h 3.0mph /  4.8km/h 57% 0.00in /  0mm 0 W/m2
01:18 37.7 °F /  3.2 °C 23.4 °F /  -4.8 °C 29.69in /  1005.3hPa South 3.0mph /  4.8km/h 7.0mph /  11.3km/h 56% 0.00in /  0mm 0 W/m2
01:23 37.7 °F /  3.2 °C 23.4 °F /  -4.8 °C 29.69in /  1005.3hPa South 4.0mph /  6.4km/h 5.0mph /  8km/h 56% 0.00in /  0mm 0 W/m2
01:29 37.6 °F /  3.1 °C 23.3 °F /  -4.8 °C 29.69in /  1005.3hPa South 3.0mph /  4.8km/h 4.0mph /  6.4km/h 56% 0.00in /  0mm 0 W/m2
01:36 37.6 °F /  3.1 °C 23.3 °F /  -4.8 °C 29.69in /  1005.3hPa SSW 3.0mph /  4.8km/h 4.0mph /  6.4km/h 56% 0.00in /  0mm 0 W/m2
01:42 37.7 °F /  3.2 °C 23.4 °F /  -4.8 °C 29.69in /  1005.3hPa SSW 3.0mph /  4.8km/h 4.0mph /  6.4km/h 56% 0.00in /  0mm 0 W/m2
01:48 37.9 °F /  3.3 °C 23.2 °F /  -4.9 °C 29.70in /  1005.6hPa SSW 3.0mph /  4.8km/h 4.0mph /  6.4km/h 55% 0.00in /  0mm 0 W/m2
01:53 38.0 °F /  3.3 °C 23.3 °F /  -4.8 °C 29.69in /  1005.3hPa South 3.0mph /  4.8km/h 5.0mph /  8km/h 55% 0.00in /  0mm 0 W/m2
02:00 37.9 °F /  3.3 °C 23.2 °F /  -4.9 °C 29.69in /  1005.3hPa South 2.0mph /  3.2km/h 3.0mph /  4.8km/h 55% 0.00in /  0mm 0 W/m2
02:05 38.0 °F /  3.3 °C 23.3 °F /  -4.8 °C 29.69in /  1005.3hPa SSW 3.0mph /  4.8km/h 4.0mph /  6.4km/h 55% 0.00in /  0mm 0 W/m2
02:12 38.1 °F /  3.4 °C 23.3 °F /  -4.8 °C 29.70in /  1005.6hPa South 3.0mph /  4.8km/h 3.0mph /  4.8km/h 55% 0.00in /  0mm 0 W/m2
02:18 38.1 °F /  3.4 °C 23.3 °F /  -4.8 °C 29.70in /  1005.6hPa SW 2.0mph /  3.2km/h 6.0mph /  9.7km/h 55% 0.00in /  0mm 0 W/m2
02:23 38.0 °F /  3.3 °C 23.3 °F /  -4.8 °C 29.70in /  1005.6hPa SW 2.0mph /  3.2km/h 2.0mph /  3.2km/h 55% 0.00in /  0mm 0 W/m2
02:29 38.0 °F /  3.3 °C 22.8 °F /  -5.1 °C 29.70in /  1005.6hPa South 2.0mph /  3.2km/h 4.0mph /  6.4km/h 54% 0.00in /  0mm 0 W/m2
02:36 38.1 °F /  3.4 °C 22.9 °F /  -5.1 °C 29.71in /  1006hPa SSW 3.0mph /  4.8km/h 4.0mph /  6.4km/h 54% 0.00in /  0mm 0 W/m2
02:42 38.0 °F /  3.3 °C 22.8 °F /  -5.1 °C 29.70in /  1005.6hPa SSW 3.0mph /  4.8km/h 6.0mph /  9.7km/h 54% 0.00in /  0mm 0 W/m2
02:50 38.0 °F /  3.3 °C 22.4 °F /  -5.3 °C 29.70in /  1005.6hPa South 3.0mph /  4.8km/h 3.0mph /  4.8km/h 53% 0.00in /  0mm 0 W/m2
02:55 38.0 °F /  3.3 °C 22.4 °F /  -5.3 °C 29.70in /  1005.6hPa South 4.0mph /  6.4km/h 7.0mph /  11.3km/h 53% 0.00in /  0mm 0 W/m2
03:02 37.9 °F /  3.3 °C 22.3 °F /  -5.4 °C 29.70in /  1005.6hPa South 3.0mph /  4.8km/h 5.0mph /  8km/h 53% 0.00in /  0mm 0 W/m2
03:08 37.8 °F /  3.2 °C 22.2 °F /  -5.4 °C 29.70in /  1005.6hPa SSW 3.0mph /  4.8km/h 6.0mph /  9.7km/h 53% 0.00in /  0mm 0 W/m2
03:14 37.9 °F /  3.3 °C 22.3 °F /  -5.4 °C 29.70in /  1005.6hPa SW 3.0mph /  4.8km/h 4.0mph /  6.4km/h 53% 0.00in /  0mm 0 W/m2
03:20 37.8 °F /  3.2 °C 22.2 °F /  -5.4 °C 29.69in /  1005.3hPa SW 4.0mph /  6.4km/h 4.0mph /  6.4km/h 53% 0.00in /  0mm 0 W/m2
03:25 37.8 °F /  3.2 °C 22.2 °F /  -5.4 °C 29.69in /  1005.3hPa WSW 4.0mph /  6.4km/h 9.0mph /  14.5km/h 53% 0.00in /  0mm 0 W/m2
03:32 37.6 °F /  3.1 °C 22.4 °F /  -5.3 °C 29.69in /  1005.3hPa South 3.0mph /  4.8km/h 4.0mph /  6.4km/h 54% 0.00in /  0mm 0 W/m2
03:38 37.7 °F /  3.2 °C 22.1 °F /  -5.5 °C 29.69in /  1005.3hPa WSW 4.0mph /  6.4km/h 4.0mph /  6.4km/h 53% 0.00in /  0mm 0 W/m2
03:44 37.6 °F /  3.1 °C 22.0 °F /  -5.6 °C 29.69in /  1005.3hPa SSW 4.0mph /  6.4km/h 8.0mph /  12.9km/h 53% 0.00in /  0mm 0 W/m2
03:50 37.5 °F /  3.1 °C 22.3 °F /  -5.4 °C 29.69in /  1005.3hPa South 4.0mph /  6.4km/h 4.0mph /  6.4km/h 54% 0.00in /  0mm 0 W/m2
03:55 37.7 °F /  3.2 °C 22.1 °F /  -5.5 °C 29.69in /  1005.3hPa SSW 4.0mph /  6.4km/h 6.0mph /  9.7km/h 53% 0.00in /  0mm 0 W/m2
04:02 37.9 °F /  3.3 °C 22.3 °F /  -5.4 °C 29.69in /  1005.3hPa SW 4.0mph /  6.4km/h 6.0mph /  9.7km/h 53% 0.00in /  0mm 0 W/m2
04:08 37.8 °F /  3.2 °C 22.2 °F /  -5.4 °C 29.69in /  1005.3hPa SSW 4.0mph /  6.4km/h 6.0mph /  9.7km/h 53% 0.00in /  0mm 0 W/m2
04:14 37.6 °F /  3.1 °C 22.0 °F /  -5.6 °C 29.69in /  1005.3hPa SSW 4.0mph /  6.4km/h 4.0mph /  6.4km/h 53% 0.00in /  0mm 0 W/m2
04:19 37.5 °F /  3.1 °C 22.3 °F /  -5.4 °C 29.69in /  1005.3hPa SW 3.0mph /  4.8km/h 3.0mph /  4.8km/h 54% 0.00in /  0mm 0 W/m2
04:26 37.2 °F /  2.9 °C 22.1 °F /  -5.5 °C 29.69in /  1005.3hPa SW 3.0mph /  4.8km/h 5.0mph /  8km/h 54% 0.00in /  0mm 0 W/m2
04:32 37.2 °F /  2.9 °C 22.1 °F /  -5.5 °C 29.69in /  1005.3hPa SW 4.0mph /  6.4km/h 4.0mph /  6.4km/h 54% 0.00in /  0mm 0 W/m2
04:38 37.1 °F /  2.8 °C 22.0 °F /  -5.6 °C 29.70in /  1005.6hPa SW 3.0mph /  4.8km/h 5.0mph /  8km/h 54% 0.00in /  0mm 0 W/m2
04:43 37.0 °F /  2.8 °C 21.9 °F /  -5.6 °C 29.69in /  1005.3hPa South 3.0mph /  4.8km/h 5.0mph /  8km/h 54% 0.00in /  0mm 0 W/m2
04:49 36.9 °F /  2.7 °C 21.8 °F /  -5.7 °C 29.69in /  1005.3hPa SW 3.0mph /  4.8km/h 3.0mph /  4.8km/h 54% 0.00in /  0mm 0 W/m2
04:56 36.7 °F /  2.6 °C 22.0 °F /  -5.6 °C 29.69in /  1005.3hPa SW 3.0mph /  4.8km/h 4.0mph /  6.4km/h 55% 0.00in /  0mm 0 W/m2
05:02 36.8 °F /  2.7 °C 22.1 °F /  -5.5 °C 29.70in /  1005.6hPa South 3.0mph /  4.8km/h 3.0mph /  4.8km/h 55% 0.00in /  0mm 0 W/m2
05:08 36.7 °F /  2.6 °C 22.0 °F /  -5.6 °C 29.70in /  1005.6hPa SSW 3.0mph /  4.8km/h 7.0mph /  11.3km/h 55% 0.00in /  0mm 0 W/m2
05:13 36.7 °F /  2.6 °C 22.0 °F /  -5.6 °C 29.70in /  1005.6hPa South 3.0mph /  4.8km/h 3.0mph /  4.8km/h 55% 0.00in /  0mm 0 W/m2
05:19 36.8 °F /  2.7 °C 22.1 °F /  -5.5 °C 29.70in /  1005.6hPa SSW 3.0mph /  4.8km/h 3.0mph /  4.8km/h 55% 0.00in /  0mm 0 W/m2
05:26 36.5 °F /  2.5 °C 21.8 °F /  -5.7 °C 29.70in /  1005.6hPa WSW 2.0mph /  3.2km/h 3.0mph /  4.8km/h 55% 0.00in /  0mm 0 W/m2
05:32 36.4 °F /  2.4 °C 21.8 °F /  -5.7 °C 29.70in /  1005.6hPa WSW 2.0mph /  3.2km/h 4.0mph /  6.4km/h 55% 0.00in /  0mm 0 W/m2
05:38 36.4 °F /  2.4 °C 21.8 °F /  -5.7 °C 29.71in /  1006hPa WSW 2.0mph /  3.2km/h 4.0mph /  6.4km/h 55% 0.00in /  0mm 0 W/m2
05:43 36.5 °F /  2.5 °C 21.8 °F /  -5.7 °C 29.72in /  1006.3hPa West 2.0mph /  3.2km/h 3.0mph /  4.8km/h 55% 0.00in /  0mm 0 W/m2
05:49 36.5 °F /  2.5 °C 21.8 °F /  -5.7 °C 29.71in /  1006hPa SSW 3.0mph /  4.8km/h 3.0mph /  4.8km/h 55% 0.00in /  0mm 0 W/m2
05:56 36.4 °F /  2.4 °C 21.8 °F /  -5.7 °C 29.72in /  1006.3hPa SSW 3.0mph /  4.8km/h 3.0mph /  4.8km/h 55% 0.00in /  0mm 0 W/m2
06:02 36.2 °F /  2.3 °C 22.0 °F /  -5.6 °C 29.73in /  1006.7hPa SW 3.0mph /  4.8km/h 4.0mph /  6.4km/h 56% 0.00in /  0mm 0 W/m2
06:08 36.2 °F /  2.3 °C 22.0 °F /  -5.6 °C 29.73in /  1006.7hPa SW 2.0mph /  3.2km/h 5.0mph /  8km/h 56% 0.00in /  0mm 0 W/m2
06:14 36.2 °F /  2.3 °C 22.0 °F /  -5.6 °C 29.72in /  1006.3hPa SW 2.0mph /  3.2km/h 2.0mph /  3.2km/h 56% 0.00in /  0mm 0 W/m2
06:20 36.1 °F /  2.3 °C 21.9 °F /  -5.6 °C 29.73in /  1006.7hPa SW 2.0mph /  3.2km/h 2.0mph /  3.2km/h 56% 0.00in /  0mm 0 W/m2
06:25 36.0 °F /  2.2 °C 22.2 °F /  -5.4 °C 29.72in /  1006.3hPa SW 2.0mph /  3.2km/h 4.0mph /  6.4km/h 57% 0.00in /  0mm 0 W/m2
06:32 36.2 °F /  2.3 °C 22.4 °F /  -5.3 °C 29.73in /  1006.7hPa WSW 3.0mph /  4.8km/h 3.0mph /  4.8km/h 57% 0.00in /  0mm 0 W/m2
06:38 36.2 °F /  2.3 °C 22.4 °F /  -5.3 °C 29.73in /  1006.7hPa SSW 3.0mph /  4.8km/h 3.0mph /  4.8km/h 57% 0.00in /  0mm 0 W/m2
06:44 36.4 °F /  2.4 °C 22.6 °F /  -5.2 °C 29.73in /  1006.7hPa WSW 3.0mph /  4.8km/h 7.0mph /  11.3km/h 57% 0.00in /  0mm 0 W/m2
06:50 36.3 °F /  2.4 °C 22.5 °F /  -5.3 °C 29.74in /  1007hPa SW 2.0mph /  3.2km/h 2.0mph /  3.2km/h 57% 0.00in /  0mm 0 W/m2
06:55 36.3 °F /  2.4 °C 22.5 °F /  -5.3 °C 29.74in /  1007hPa SSW 2.0mph /  3.2km/h 8.0mph /  12.9km/h 57% 0.00in /  0mm 0 W/m2
07:02 36.4 °F /  2.4 °C 22.6 °F /  -5.2 °C 29.74in /  1007hPa SW 2.0mph /  3.2km/h 3.0mph /  4.8km/h 57% 0.00in /  0mm 0 W/m2
07:08 36.3 °F /  2.4 °C 22.5 °F /  -5.3 °C 29.74in /  1007hPa WSW 2.0mph /  3.2km/h 4.0mph /  6.4km/h 57% 0.00in /  0mm 0 W/m2
07:16 36.4 °F /  2.4 °C 23.0 °F /  -5 °C 29.74in /  1007hPa WSW 2.0mph /  3.2km/h 3.0mph /  4.8km/h 58% 0.00in /  0mm 0 W/m2
07:22 36.8 °F /  2.7 °C 23.4 °F /  -4.8 °C 29.75in /  1007.3hPa SW 3.0mph /  4.8km/h 3.0mph /  4.8km/h 58% 0.00in /  0mm 0 W/m2
07:28 36.8 °F /  2.7 °C 23.4 °F /  -4.8 °C 29.75in /  1007.3hPa West 2.0mph /  3.2km/h 3.0mph /  4.8km/h 58% 0.00in /  0mm 0 W/m2
07:34 36.8 °F /  2.7 °C 23.4 °F /  -4.8 °C 29.75in /  1007.3hPa SW 3.0mph /  4.8km/h 3.0mph /  4.8km/h 58% 0.00in /  0mm 0 W/m2
07:40 36.8 °F /  2.7 °C 23.4 °F /  -4.8 °C 29.75in /  1007.3hPa WSW 2.0mph /  3.2km/h 2.0mph /  3.2km/h 58% 0.00in /  0mm 7 W/m2
07:45 36.8 °F /  2.7 °C 23.4 °F /  -4.8 °C 29.75in /  1007.3hPa SSW 2.0mph /  3.2km/h 4.0mph /  6.4km/h 58% 0.00in /  0mm 11 W/m2
07:52 37.2 °F /  2.9 °C 23.8 °F /  -4.6 °C 29.75in /  1007.3hPa SW 3.0mph /  4.8km/h 9.0mph /  14.5km/h 58% 0.00in /  0mm 14 W/m2
07:58 37.3 °F /  2.9 °C 23.9 °F /  -4.5 °C 29.76in /  1007.7hPa WSW 3.0mph /  4.8km/h 9.0mph /  14.5km/h 58% 0.00in /  0mm 14 W/m2
08:04 37.4 °F /  3 °C 24.0 °F /  -4.4 °C 29.76in /  1007.7hPa WSW 3.0mph /  4.8km/h 4.0mph /  6.4km/h 58% 0.00in /  0mm 21 W/m2
08:09 37.6 °F /  3.1 °C 24.1 °F /  -4.4 °C 29.76in /  1007.7hPa WSW 3.0mph /  4.8km/h 5.0mph /  8km/h 58% 0.00in /  0mm 30 W/m2
08:16 38.0 °F /  3.3 °C 24.5 °F /  -4.2 °C 29.77in /  1008hPa WSW 4.0mph /  6.4km/h 6.0mph /  9.7km/h 58% 0.00in /  0mm 42 W/m2
08:22 38.1 °F /  3.4 °C 24.6 °F /  -4.1 °C 29.77in /  1008hPa West 4.0mph /  6.4km/h 6.0mph /  9.7km/h 58% 0.00in /  0mm 49 W/m2
08:28 38.4 °F /  3.6 °C 24.5 °F /  -4.2 °C 29.77in /  1008hPa West 4.0mph /  6.4km/h 6.0mph /  9.7km/h 57% 0.00in /  0mm 74 W/m2
08:33 38.8 °F /  3.8 °C 24.9 °F /  -3.9 °C 29.78in /  1008.4hPa WNW 4.0mph /  6.4km/h 8.0mph /  12.9km/h 57% 0.00in /  0mm 125 W/m2
08:39 39.1 °F /  3.9 °C 25.1 °F /  -3.8 °C 29.78in /  1008.4hPa SW 5.0mph /  8km/h 5.0mph /  8km/h 57% 0.00in /  0mm 121 W/m2
08:46 39.4 °F /  4.1 °C 25.0 °F /  -3.9 °C 29.78in /  1008.4hPa SW 4.0mph /  6.4km/h 5.0mph /  8km/h 56% 0.00in /  0mm 128 W/m2
08:52 39.6 °F /  4.2 °C 25.2 °F /  -3.8 °C 29.78in /  1008.4hPa West 4.0mph /  6.4km/h 5.0mph /  8km/h 56% 0.00in /  0mm 121 W/m2
08:58 39.8 °F /  4.3 °C 25.4 °F /  -3.7 °C 29.79in /  1008.7hPa West 5.0mph /  8km/h 5.0mph /  8km/h 56% 0.00in /  0mm 91 W/m2
09:06 39.8 °F /  4.3 °C 25.4 °F /  -3.7 °C 29.79in /  1008.7hPa WSW 5.0mph /  8km/h 5.0mph /  8km/h 56% 0.00in /  0mm 128 W/m2
09:12 39.9 °F /  4.4 °C 25.5 °F /  -3.6 °C 29.79in /  1008.7hPa WSW 4.0mph /  6.4km/h 4.0mph /  6.4km/h 56% 0.00in /  0mm 148 W/m2
09:18 40.1 °F /  4.5 °C 25.6 °F /  -3.6 °C 29.79in /  1008.7hPa WSW 4.0mph /  6.4km/h 7.0mph /  11.3km/h 56% 0.00in /  0mm 169 W/m2
09:23 40.2 °F /  4.6 °C 25.7 °F /  -3.5 °C 29.79in /  1008.7hPa SW 5.0mph /  8km/h 17.0mph /  27.4km/h 56% 0.00in /  0mm 183 W/m2
09:29 40.4 °F /  4.7 °C 25.9 °F /  -3.4 °C 29.80in /  1009hPa SW 5.0mph /  8km/h 8.0mph /  12.9km/h 56% 0.00in /  0mm 214 W/m2
09:36 40.7 °F /  4.8 °C 25.8 °F /  -3.4 °C 29.80in /  1009hPa West 5.0mph /  8km/h 8.0mph /  12.9km/h 55% 0.00in /  0mm 253 W/m2
09:42 41.1 °F /  5.1 °C 26.1 °F /  -3.3 °C 29.80in /  1009hPa WSW 4.0mph /  6.4km/h 4.0mph /  6.4km/h 55% 0.00in /  0mm 221 W/m2
09:48 40.8 °F /  4.9 °C 26.3 °F /  -3.2 °C 29.80in /  1009hPa West 4.0mph /  6.4km/h 5.0mph /  8km/h 56% 0.00in /  0mm 246 W/m2
09:54 40.8 °F /  4.9 °C 25.9 °F /  -3.4 °C 29.80in /  1009hPa WNW 4.0mph /  6.4km/h 8.0mph /  12.9km/h 55% 0.00in /  0mm 186 W/m2
10:00 40.6 °F /  4.8 °C 25.7 °F /  -3.5 °C 29.80in /  1009hPa SW 5.0mph /  8km/h 11.0mph /  17.7km/h 55% 0.00in /  0mm 176 W/m2
10:05 40.7 °F /  4.8 °C 26.2 °F /  -3.2 °C 29.80in /  1009hPa WNW 7.0mph /  11.3km/h 11.0mph /  17.7km/h 56% 0.00in /  0mm 213 W/m2
10:12 40.9 °F /  4.9 °C 26.4 °F /  -3.1 °C 29.80in /  1009hPa WSW 5.0mph /  8km/h 6.0mph /  9.7km/h 56% 0.00in /  0mm 315 W/m2
10:18 41.3 °F /  5.2 °C 26.3 °F /  -3.2 °C 29.80in /  1009hPa West 5.0mph /  8km/h 8.0mph /  12.9km/h 55% 0.00in /  0mm 343 W/m2
10:23 41.8 °F /  5.4 °C 26.8 °F /  -2.9 °C 29.80in /  1009hPa WSW 5.0mph /  8km/h 5.0mph /  8km/h 55% 0.00in /  0mm 330 W/m2
10:28 41.6 °F /  5.3 °C 26.6 °F /  -3 °C 29.80in /  1009hPa SW 5.0mph /  8km/h 8.0mph /  12.9km/h 55% 0.00in /  0mm 355 W/m2
10:34 41.7 °F /  5.4 °C 26.7 °F /  -2.9 °C 29.80in /  1009hPa SW 6.0mph /  9.7km/h 6.0mph /  9.7km/h 55% 0.00in /  0mm 376 W/m2
10:39 41.9 °F /  5.5 °C 26.9 °F /  -2.8 °C 29.80in /  1009hPa SW 6.0mph /  9.7km/h 6.0mph /  9.7km/h 55% 0.00in /  0mm 373 W/m2
10:46 42.1 °F /  5.6 °C 26.6 °F /  -3 °C 29.81in /  1009.4hPa West 6.0mph /  9.7km/h 6.0mph /  9.7km/h 54% 0.00in /  0mm 410 W/m2
10:52 42.1 °F /  5.6 °C 26.6 °F /  -3 °C 29.82in /  1009.7hPa WNW 6.0mph /  9.7km/h 6.0mph /  9.7km/h 54% 0.00in /  0mm 387 W/m2
10:58 42.2 °F /  5.7 °C 26.7 °F /  -2.9 °C 29.82in /  1009.7hPa SSW 6.0mph /  9.7km/h 15.0mph /  24.1km/h 54% 0.00in /  0mm 417 W/m2
11:03 42.4 °F /  5.8 °C 26.9 °F /  -2.8 °C 29.82in /  1009.7hPa WSW 6.0mph /  9.7km/h 12.0mph /  19.3km/h 54% 0.00in /  0mm 408 W/m2
11:09 42.3 °F /  5.7 °C 26.8 °F /  -2.9 °C 29.81in /  1009.4hPa WNW 6.0mph /  9.7km/h 6.0mph /  9.7km/h 54% 0.00in /  0mm 420 W/m2
11:16 42.3 °F /  5.7 °C 26.8 °F /  -2.9 °C 29.82in /  1009.7hPa SW 6.0mph /  9.7km/h 9.0mph /  14.5km/h 54% 0.00in /  0mm 397 W/m2
11:22 42.5 °F /  5.8 °C 27.0 °F /  -2.8 °C 29.82in /  1009.7hPa West 6.0mph /  9.7km/h 6.0mph /  9.7km/h 54% 0.09in /  2.29mm 427 W/m2
11:28 42.7 °F /  5.9 °C 27.2 °F /  -2.7 °C 29.82in /  1009.7hPa West 5.0mph /  8km/h 6.0mph /  9.7km/h 54% 0.11in /  2.79mm 452 W/m2
11:33 42.6 °F /  5.9 °C 27.1 °F /  -2.7 °C 29.82in /  1009.7hPa West 6.0mph /  9.7km/h 11.0mph /  17.7km/h 54% 0.09in /  2.29mm 424 W/m2
11:39 43.0 °F /  6.1 °C 27.5 °F /  -2.5 °C 29.82in /  1009.7hPa West 6.0mph /  9.7km/h 6.0mph /  9.7km/h 54% 0.13in /  3.3mm 411 W/m2
11:46 43.0 °F /  6.1 °C 27.5 °F /  -2.5 °C 29.82in /  1009.7hPa WSW 5.0mph /  8km/h 7.0mph /  11.3km/h 54% 0.08in /  2.03mm 454 W/m2
11:52 42.7 °F /  5.9 °C 27.2 °F /  -2.7 °C 29.82in /  1009.7hPa SW 6.0mph /  9.7km/h 6.0mph /  9.7km/h 54% 0.11in /  2.79mm 483 W/m2
11:58 43.1 °F /  6.2 °C 27.6 °F /  -2.4 °C 29.82in /  1009.7hPa West 6.0mph /  9.7km/h 7.0mph /  11.3km/h 54% 0.09in /  2.29mm 487 W/m2
12:03 43.2 °F /  6.2 °C 27.7 °F /  -2.4 °C 29.82in /  1009.7hPa WSW 5.0mph /  8km/h 7.0mph /  11.3km/h 54% 0.11in /  2.79mm 487 W/m2
12:09 43.5 °F /  6.4 °C 27.5 °F /  -2.5 °C 29.82in /  1009.7hPa SW 5.0mph /  8km/h 7.0mph /  11.3km/h 53% 0.09in /  2.29mm 499 W/m2
12:16 43.4 °F /  6.3 °C 27.4 °F /  -2.6 °C 29.82in /  1009.7hPa West 5.0mph /  8km/h 9.0mph /  14.5km/h 53% 0.11in /  2.79mm 466 W/m2
12:22 43.9 °F /  6.6 °C 27.4 °F /  -2.6 °C 29.82in /  1009.7hPa West 4.0mph /  6.4km/h 6.0mph /  9.7km/h 52% 0.08in /  2.03mm 469 W/m2
12:28 44.1 °F /  6.7 °C 28.0 °F /  -2.2 °C 29.82in /  1009.7hPa NW 4.0mph /  6.4km/h 6.0mph /  9.7km/h 53% 0.10in /  2.54mm 485 W/m2
12:34 44.1 °F /  6.7 °C 28.0 °F /  -2.2 °C 29.82in /  1009.7hPa WSW 4.0mph /  6.4km/h 7.0mph /  11.3km/h 53% 0.10in /  2.54mm 485 W/m2
12:40 44.2 °F /  6.8 °C 27.7 °F /  -2.4 °C 29.82in /  1009.7hPa NW 3.0mph /  4.8km/h 6.0mph /  9.7km/h 52% 0.07in /  1.78mm 401 W/m2
12:45 43.8 °F /  6.6 °C 27.8 °F /  -2.3 °C 29.82in /  1009.7hPa West 4.0mph /  6.4km/h 8.0mph /  12.9km/h 53% 0.08in /  2.03mm 410 W/m2
12:52 44.0 °F /  6.7 °C 28.0 °F /  -2.2 °C 29.82in /  1009.7hPa West 4.0mph /  6.4km/h 8.0mph /  12.9km/h 53% 0.08in /  2.03mm 475 W/m2
12:58 43.9 °F /  6.6 °C 27.9 °F /  -2.3 °C 29.82in /  1009.7hPa West 5.0mph /  8km/h 8.0mph /  12.9km/h 53% 0.06in /  1.52mm 461 W/m2
13:04 44.2 °F /  6.8 °C 28.1 °F /  -2.2 °C 29.82in /  1009.7hPa West 5.0mph /  8km/h 5.0mph /  8km/h 53% 0.07in /  1.78mm 357 W/m2
13:10 44.5 °F /  6.9 °C 28.4 °F /  -2 °C 29.82in /  1009.7hPa SW 5.0mph /  8km/h 5.0mph /  8km/h 53% 0.07in /  1.78mm 457 W/m2
13:15 44.6 °F /  7 °C 28.5 °F /  -1.9 °C 29.82in /  1009.7hPa West 4.0mph /  6.4km/h 9.0mph /  14.5km/h 53% 0.06in /  1.52mm 455 W/m2
13:22 44.4 °F /  6.9 °C 28.3 °F /  -2.1 °C 29.82in /  1009.7hPa West 6.0mph /  9.7km/h 6.0mph /  9.7km/h 53% 0.06in /  1.52mm 431 W/m2
13:28 44.5 °F /  6.9 °C 28.4 °F /  -2 °C 29.82in /  1009.7hPa West 5.0mph /  8km/h 6.0mph /  9.7km/h 53% 0.07in /  1.78mm 434 W/m2
13:34 44.7 °F /  7.1 °C 28.6 °F /  -1.9 °C 29.82in /  1009.7hPa WSW 5.0mph /  8km/h 5.0mph /  8km/h 53% 0.06in /  1.52mm 432 W/m2
13:40 44.5 °F /  6.9 °C 28.4 °F /  -2 °C 29.82in /  1009.7hPa NW 5.0mph /  8km/h 5.0mph /  8km/h 53% 0.04in /  1.02mm 425 W/m2
13:45 44.4 °F /  6.9 °C 28.3 °F /  -2.1 °C 29.82in /  1009.7hPa WNW 5.0mph /  8km/h 8.0mph /  12.9km/h 53% 0.04in /  1.02mm 420 W/m2
13:52 44.6 °F /  7 °C 28.5 °F /  -1.9 °C 29.82in /  1009.7hPa West 5.0mph /  8km/h 5.0mph /  8km/h 53% 0.04in /  1.02mm 410 W/m2
13:58 44.7 °F /  7.1 °C 28.6 °F /  -1.9 °C 29.82in /  1009.7hPa West 4.0mph /  6.4km/h 6.0mph /  9.7km/h 53% 0.04in /  1.02mm 399 W/m2
14:04 44.6 °F /  7 °C 28.5 °F /  -1.9 °C 29.83in /  1010hPa WNW 4.0mph /  6.4km/h 5.0mph /  8km/h 53% 0.04in /  1.02mm 383 W/m2
14:10 44.5 °F /  6.9 °C 28.9 °F /  -1.7 °C 29.83in /  1010hPa WSW 4.0mph /  6.4km/h 4.0mph /  6.4km/h 54% 0.00in /  0mm 374 W/m2
14:16 45.2 °F /  7.3 °C 28.6 °F /  -1.9 °C 29.83in /  1010hPa WSW 4.0mph /  6.4km/h 5.0mph /  8km/h 52% 0.00in /  0mm 367 W/m2
14:22 44.8 °F /  7.1 °C 28.7 °F /  -1.8 °C 29.83in /  1010hPa West 3.0mph /  4.8km/h 4.0mph /  6.4km/h 53% 0.00in /  0mm 357 W/m2
14:28 44.7 °F /  7.1 °C 28.6 °F /  -1.9 °C 29.83in /  1010hPa West 4.0mph /  6.4km/h 5.0mph /  8km/h 53% 0.00in /  0mm 345 W/m2
14:34 44.5 °F /  6.9 °C 28.9 °F /  -1.7 °C 29.83in /  1010hPa West 4.0mph /  6.4km/h 7.0mph /  11.3km/h 54% 0.00in /  0mm 345 W/m2
14:40 44.4 °F /  6.9 °C 28.3 °F /  -2.1 °C 29.84in /  1010.4hPa SW 5.0mph /  8km/h 5.0mph /  8km/h 53% 0.00in /  0mm 322 W/m2
14:45 44.3 °F /  6.8 °C 28.7 °F /  -1.8 °C 29.83in /  1010hPa WSW 4.0mph /  6.4km/h 5.0mph /  8km/h 54% 0.00in /  0mm 311 W/m2
14:52 44.5 °F /  6.9 °C 28.9 °F /  -1.7 °C 29.84in /  1010.4hPa WSW 3.0mph /  4.8km/h 4.0mph /  6.4km/h 54% 0.00in /  0mm 299 W/m2
14:58 44.3 °F /  6.8 °C 28.7 °F /  -1.8 °C 29.84in /  1010.4hPa West 3.0mph /  4.8km/h 5.0mph /  8km/h 54% 0.00in /  0mm 287 W/m2
15:04 44.0 °F /  6.7 °C 28.9 °F /  -1.7 °C 29.84in /  1010.4hPa WNW 4.0mph /  6.4km/h 8.0mph /  12.9km/h 55% 0.00in /  0mm 274 W/m2
15:10 43.9 °F /  6.6 °C 28.8 °F /  -1.8 °C 29.84in /  1010.4hPa NW 4.0mph /  6.4km/h 4.0mph /  6.4km/h 55% 0.00in /  0mm 260 W/m2
15:15 43.6 °F /  6.4 °C 28.5 °F /  -1.9 °C 29.85in /  1010.7hPa West 5.0mph /  8km/h 7.0mph /  11.3km/h 55% 0.00in /  0mm 251 W/m2
15:22 43.5 °F /  6.4 °C 28.4 °F /  -2 °C 29.85in /  1010.7hPa WNW 5.0mph /  8km/h 7.0mph /  11.3km/h 55% 0.00in /  0mm 239 W/m2
15:28 43.4 °F /  6.3 °C 28.7 °F /  -1.8 °C 29.85in /  1010.7hPa West 5.0mph /  8km/h 7.0mph /  11.3km/h 56% 0.00in /  0mm 221 W/m2
15:34 43.3 °F /  6.3 °C 28.6 °F /  -1.9 °C 29.86in /  1011.1hPa WSW 4.0mph /  6.4km/h 5.0mph /  8km/h 56% 0.00in /  0mm 207 W/m2
15:39 43.3 °F /  6.3 °C 28.6 °F /  -1.9 °C 29.85in /  1010.7hPa West 4.0mph /  6.4km/h 4.0mph /  6.4km/h 56% 0.00in /  0mm 192 W/m2
15:46 43.2 °F /  6.2 °C 28.5 °F /  -1.9 °C 29.86in /  1011.1hPa West 4.0mph /  6.4km/h 4.0mph /  6.4km/h 56% 0.00in /  0mm 179 W/m2
15:52 43.2 °F /  6.2 °C 29.0 °F /  -1.7 °C 29.86in /  1011.1hPa West 3.0mph /  4.8km/h 5.0mph /  8km/h 57% 0.00in /  0mm 163 W/m2
15:58 43.2 °F /  6.2 °C 28.5 °F /  -1.9 °C 29.87in /  1011.4hPa West 2.0mph /  3.2km/h 5.0mph /  8km/h 56% 0.00in /  0mm 148 W/m2
16:04 43.0 °F /  6.1 °C 28.4 °F /  -2 °C 29.87in /  1011.4hPa WSW 3.0mph /  4.8km/h 4.0mph /  6.4km/h 56% 0.00in /  0mm 135 W/m2
16:10 42.8 °F /  6 °C 28.6 °F /  -1.9 °C 29.88in /  1011.7hPa West 3.0mph /  4.8km/h 3.0mph /  4.8km/h 57% 0.00in /  0mm 113 W/m2
16:16 42.7 °F /  5.9 °C 28.5 °F /  -1.9 °C 29.88in /  1011.7hPa WSW 3.0mph /  4.8km/h 3.0mph /  4.8km/h 57% 0.00in /  0mm 33 W/m2
16:22 42.5 °F /  5.8 °C 28.3 °F /  -2.1 °C 29.88in /  1011.7hPa WNW 2.0mph /  3.2km/h 4.0mph /  6.4km/h 57% 0.00in /  0mm 30 W/m2
16:28 42.2 °F /  5.7 °C 28.5 °F /  -1.9 °C 29.89in /  1012.1hPa WSW 3.0mph /  4.8km/h 4.0mph /  6.4km/h 58% 0.00in /  0mm 25 W/m2
16:33 41.9 °F /  5.5 °C 28.6 °F /  -1.9 °C 29.90in /  1012.4hPa West 3.0mph /  4.8km/h 3.0mph /  4.8km/h 59% 0.00in /  0mm 19 W/m2
16:40 41.6 °F /  5.3 °C 28.7 °F /  -1.8 °C 29.90in /  1012.4hPa West 2.0mph /  3.2km/h 2.0mph /  3.2km/h 60% 0.00in /  0mm 18 W/m2
16:46 41.4 °F /  5.2 °C 28.5 °F /  -1.9 °C 29.90in /  1012.4hPa WSW 1.0mph /  1.6km/h 2.0mph /  3.2km/h 60% 0.00in /  0mm 12 W/m2
16:52 41.1 °F /  5.1 °C 28.3 °F /  -2.1 °C 29.90in /  1012.4hPa WSW 1.0mph /  1.6km/h 2.0mph /  3.2km/h 60% 0.00in /  0mm 9 W/m2
16:58 40.9 °F /  4.9 °C 28.5 °F /  -1.9 °C 29.91in /  1012.8hPa WSW 1.0mph /  1.6km/h 3.0mph /  4.8km/h 61% 0.00in /  0mm 5 W/m2
17:04 40.7 °F /  4.8 °C 28.3 °F /  -2.1 °C 29.91in /  1012.8hPa WSW 2.0mph /  3.2km/h 3.0mph /  4.8km/h 61% 0.00in /  0mm 0 W/m2
17:10 40.5 °F /  4.7 °C 28.5 °F /  -1.9 °C 29.92in /  1013.1hPa WSW 1.0mph /  1.6km/h 1.0mph /  1.6km/h 62% 0.00in /  0mm 0 W/m2
17:16 40.3 °F /  4.6 °C 28.3 °F /  -2.1 °C 29.92in /  1013.1hPa WSW 1.0mph /  1.6km/h 1.0mph /  1.6km/h 62% 0.00in /  0mm 0 W/m2
17:22 40.0 °F /  4.4 °C 28.4 °F /  -2 °C 29.92in /  1013.1hPa Calm   1.0mph /  1.6km/h 63% 0.00in /  0mm 0 W/m2
17:28 39.5 °F /  4.2 °C 27.9 °F /  -2.3 °C 29.92in /  1013.1hPa Calm   1.0mph /  1.6km/h 63% 0.00in /  0mm 0 W/m2
17:34 39.1 °F /  3.9 °C 27.9 °F /  -2.3 °C 29.93in /  1013.4hPa Calm   2.0mph /  3.2km/h 64% 0.00in /  0mm 0 W/m2
17:40 39.0 °F /  3.9 °C 28.2 °F /  -2.1 °C 29.93in /  1013.4hPa WSW 1.0mph /  1.6km/h 1.0mph /  1.6km/h 65% 0.00in /  0mm 0 W/m2
17:46 39.0 °F /  3.9 °C 28.2 °F /  -2.1 °C 29.93in /  1013.4hPa WSW 1.0mph /  1.6km/h 3.0mph /  4.8km/h 65% 0.00in /  0mm 0 W/m2
17:52 38.8 °F /  3.8 °C 28.0 °F /  -2.2 °C 29.94in /  1013.8hPa WSW 1.0mph /  1.6km/h 1.0mph /  1.6km/h 65% 0.00in /  0mm 0 W/m2
17:58 38.6 °F /  3.7 °C 27.8 °F /  -2.3 °C 29.94in /  1013.8hPa Calm   1.0mph /  1.6km/h 65% 0.00in /  0mm 0 W/m2
18:03 38.4 °F /  3.6 °C 28.0 °F /  -2.2 °C 29.94in /  1013.8hPa Calm     66% 0.00in /  0mm 0 W/m2
18:10 38.1 °F /  3.4 °C 27.7 °F /  -2.4 °C 29.95in /  1014.1hPa Calm     66% 0.00in /  0mm 0 W/m2
18:15 37.7 °F /  3.2 °C 27.7 °F /  -2.4 °C 29.95in /  1014.1hPa Calm     67% 0.00in /  0mm 0 W/m2
18:22 37.7 °F /  3.2 °C 27.7 °F /  -2.4 °C 29.95in /  1014.1hPa WSW 1.0mph /  1.6km/h 1.0mph /  1.6km/h 67% 0.00in /  0mm 0 W/m2
18:28 38.0 °F /  3.3 °C 28.0 °F /  -2.2 °C 29.95in /  1014.1hPa WSW 1.0mph /  1.6km/h 2.0mph /  3.2km/h 67% 0.00in /  0mm 0 W/m2
18:34 38.1 °F /  3.4 °C 28.1 °F /  -2.2 °C 29.95in /  1014.1hPa WSW 1.0mph /  1.6km/h 1.0mph /  1.6km/h 67% 0.00in /  0mm 0 W/m2
18:39 38.0 °F /  3.3 °C 28.0 °F /  -2.2 °C 29.95in /  1014.1hPa Calm     67% 0.00in /  0mm 0 W/m2
18:46 37.7 °F /  3.2 °C 27.7 °F /  -2.4 °C 29.94in /  1013.8hPa Calm     67% 0.00in /  0mm 0 W/m2
18:52 37.3 °F /  2.9 °C 27.3 °F /  -2.6 °C 29.94in /  1013.8hPa Calm     67% 0.00in /  0mm 0 W/m2
18:58 36.9 °F /  2.7 °C 27.3 °F /  -2.6 °C 29.95in /  1014.1hPa Calm     68% 0.00in /  0mm 0 W/m2
19:04 36.5 °F /  2.5 °C 26.9 °F /  -2.8 °C 29.96in /  1014.4hPa Calm     68% 0.00in /  0mm 0 W/m2
19:09 36.1 °F /  2.3 °C 26.9 °F /  -2.8 °C 29.96in /  1014.4hPa Calm     69% 0.00in /  0mm 0 W/m2
19:16 35.6 °F /  2 °C 26.8 °F /  -2.9 °C 29.96in /  1014.4hPa Calm     70% 0.00in /  0mm 0 W/m2
19:22 35.2 °F /  1.8 °C 26.4 °F /  -3.1 °C 29.97in /  1014.8hPa Calm     70% 0.00in /  0mm 0 W/m2
19:28 35.1 °F /  1.7 °C 26.6 °F /  -3 °C 29.97in /  1014.8hPa Calm     71% 0.00in /  0mm 0 W/m2
19:33 34.9 °F /  1.6 °C 26.4 °F /  -3.1 °C 29.97in /  1014.8hPa Calm     71% 0.00in /  0mm 0 W/m2
19:39 34.8 °F /  1.6 °C 26.7 °F /  -2.9 °C 29.97in /  1014.8hPa Calm     72% 0.00in /  0mm 0 W/m2
19:46 34.6 °F /  1.4 °C 26.5 °F /  -3.1 °C 29.97in /  1014.8hPa Calm     72% 0.00in /  0mm 0 W/m2
19:52 34.4 °F /  1.3 °C 26.6 °F /  -3 °C 29.97in /  1014.8hPa Calm     73% 0.00in /  0mm 0 W/m2
19:58 34.0 °F /  1.1 °C 26.3 °F /  -3.2 °C 29.97in /  1014.8hPa Calm     73% 0.00in /  0mm 0 W/m2
20:03 33.9 °F /  1.1 °C 26.2 °F /  -3.2 °C 29.97in /  1014.8hPa Calm     73% 0.00in /  0mm 0 W/m2
20:09 33.8 °F /  1 °C 26.4 °F /  -3.1 °C 29.97in /  1014.8hPa Calm     74% 0.00in /  0mm 0 W/m2
20:16 33.7 °F /  0.9 °C 26.3 °F /  -3.2 °C 29.98in /  1015.1hPa Calm     74% 0.00in /  0mm 0 W/m2
20:22 33.6 °F /  0.9 °C 26.2 °F /  -3.2 °C 29.98in /  1015.1hPa Calm     74% 0.00in /  0mm 0 W/m2
20:28 33.4 °F /  0.8 °C 26.3 °F /  -3.2 °C 29.98in /  1015.1hPa Calm     75% 0.00in /  0mm 0 W/m2
20:33 33.0 °F /  0.6 °C 25.9 °F /  -3.4 °C 29.98in /  1015.1hPa Calm     75% 0.00in /  0mm 0 W/m2
20:39 32.7 °F /  0.4 °C 25.6 °F /  -3.6 °C 29.98in /  1015.1hPa Calm     75% 0.00in /  0mm 0 W/m2
20:46 32.3 °F /  0.2 °C 25.6 °F /  -3.6 °C 29.98in /  1015.1hPa Calm     76% 0.00in /  0mm 0 W/m2
20:52 32.2 °F /  0.1 °C 25.8 °F /  -3.4 °C 29.98in /  1015.1hPa Calm     77% 0.00in /  0mm 0 W/m2
20:58 31.9 °F /  -0.1 °C 25.5 °F /  -3.6 °C 29.99in /  1015.5hPa Calm     77% 0.00in /  0mm 0 W/m2
21:03 31.8 °F /  -0.1 °C 25.7 °F /  -3.5 °C 29.99in /  1015.5hPa Calm   2.0mph /  3.2km/h 78% 0.00in /  0mm 0 W/m2
21:09 32.2 °F /  0.1 °C 26.1 °F /  -3.3 °C 29.99in /  1015.5hPa Calm   1.0mph /  1.6km/h 78% 0.00in /  0mm 0 W/m2
21:16 33.2 °F /  0.7 °C 27.1 °F /  -2.7 °C 29.99in /  1015.5hPa West 1.0mph /  1.6km/h 2.0mph /  3.2km/h 78% 0.00in /  0mm 0 W/m2
21:22 33.9 °F /  1.1 °C 27.4 °F /  -2.6 °C 29.99in /  1015.5hPa West 1.0mph /  1.6km/h 2.0mph /  3.2km/h 77% 0.00in /  0mm 0 W/m2
21:29 34.0 °F /  1.1 °C 26.9 °F /  -2.8 °C 30.00in /  1015.8hPa SW 1.0mph /  1.6km/h 1.0mph /  1.6km/h 75% 0.00in /  0mm 0 W/m2
21:35 34.0 °F /  1.1 °C 26.9 °F /  -2.8 °C 29.99in /  1015.5hPa SW 1.0mph /  1.6km/h 2.0mph /  3.2km/h 75% 0.00in /  0mm 0 W/m2
21:42 34.1 °F /  1.2 °C 27.0 °F /  -2.8 °C 29.99in /  1015.5hPa WSW 2.0mph /  3.2km/h 2.0mph /  3.2km/h 75% 0.00in /  0mm 0 W/m2
21:48 34.1 °F /  1.2 °C 27.0 °F /  -2.8 °C 29.99in /  1015.5hPa WSW 2.0mph /  3.2km/h 2.0mph /  3.2km/h 75% 0.00in /  0mm 0 W/m2
21:54 34.1 °F /  1.2 °C 27.0 °F /  -2.8 °C 29.99in /  1015.5hPa SW 2.0mph /  3.2km/h 2.0mph /  3.2km/h 75% 0.00in /  0mm 0 W/m2
21:59 34.1 °F /  1.2 °C 27.0 °F /  -2.8 °C 29.99in /  1015.5hPa WSW 2.0mph /  3.2km/h 3.0mph /  4.8km/h 75% 0.00in /  0mm 0 W/m2
22:05 34.2 °F /  1.2 °C 27.1 °F /  -2.7 °C 29.99in /  1015.5hPa SW 2.0mph /  3.2km/h 4.0mph /  6.4km/h 75% 0.00in /  0mm 0 W/m2
22:12 34.1 °F /  1.2 °C 27.0 °F /  -2.8 °C 29.99in /  1015.5hPa WSW 2.0mph /  3.2km/h 2.0mph /  3.2km/h 75% 0.00in /  0mm 0 W/m2
22:18 34.1 °F /  1.2 °C 27.0 °F /  -2.8 °C 29.99in /  1015.5hPa WSW 2.0mph /  3.2km/h 2.0mph /  3.2km/h 75% 0.00in /  0mm 0 W/m2
22:24 34.1 °F /  1.2 °C 27.0 °F /  -2.8 °C 29.99in /  1015.5hPa WSW 1.0mph /  1.6km/h 2.0mph /  3.2km/h 75% 0.00in /  0mm 0 W/m2
22:30 34.1 °F /  1.2 °C 27.0 °F /  -2.8 °C 29.99in /  1015.5hPa SW 2.0mph /  3.2km/h 2.0mph /  3.2km/h 75% 0.00in /  0mm 0 W/m2
22:35 34.0 °F /  1.1 °C 26.9 °F /  -2.8 °C 29.99in /  1015.5hPa WSW 2.0mph /  3.2km/h 7.0mph /  11.3km/h 75% 0.00in /  0mm 0 W/m2
22:42 34.1 °F /  1.2 °C 27.0 °F /  -2.8 °C 29.99in /  1015.5hPa WSW 3.0mph /  4.8km/h 3.0mph /  4.8km/h 75% 0.00in /  0mm 0 W/m2
22:48 33.9 °F /  1.1 °C 26.8 °F /  -2.9 °C 29.99in /  1015.5hPa WSW 2.0mph /  3.2km/h 4.0mph /  6.4km/h 75% 0.00in /  0mm 0 W/m2
22:54 33.7 °F /  0.9 °C 26.6 °F /  -3 °C 29.99in /  1015.5hPa WSW 1.0mph /  1.6km/h 2.0mph /  3.2km/h 75% 0.00in /  0mm 0 W/m2
22:59 33.6 °F /  0.9 °C 26.8 °F /  -2.9 °C 29.99in /  1015.5hPa SW 1.0mph /  1.6km/h 1.0mph /  1.6km/h 76% 0.00in /  0mm 0 W/m2
23:05 33.6 °F /  0.9 °C 26.8 °F /  -2.9 °C 29.99in /  1015.5hPa SW 2.0mph /  3.2km/h 2.0mph /  3.2km/h 76% 0.00in /  0mm 0 W/m2
23:12 33.5 °F /  0.8 °C 26.7 °F /  -2.9 °C 29.99in /  1015.5hPa SW 2.0mph /  3.2km/h 3.0mph /  4.8km/h 76% 0.00in /  0mm 0 W/m2
23:18 33.5 °F /  0.8 °C 26.7 °F /  -2.9 °C 29.99in /  1015.5hPa SW 2.0mph /  3.2km/h 3.0mph /  4.8km/h 76% 0.00in /  0mm 0 W/m2
23:24 33.4 °F /  0.8 °C 26.6 °F /  -3 °C 30.00in /  1015.8hPa WSW 2.0mph /  3.2km/h 4.0mph /  6.4km/h 76% 0.00in /  0mm 0 W/m2
23:29 33.4 °F /  0.8 °C 27.0 °F /  -2.8 °C 30.00in /  1015.8hPa WSW 1.0mph /  1.6km/h 1.0mph /  1.6km/h 77% 0.00in /  0mm 0 W/m2
23:36 33.3 °F /  0.7 °C 26.5 °F /  -3.1 °C 30.00in /  1015.8hPa WSW 1.0mph /  1.6km/h 2.0mph /  3.2km/h 76% 0.00in /  0mm 0 W/m2
23:42 33.2 °F /  0.7 °C 26.8 °F /  -2.9 °C 30.00in /  1015.8hPa WSW 1.0mph /  1.6km/h 1.0mph /  1.6km/h 77% 0.00in /  0mm 0 W/m2
23:48 33.3 °F /  0.7 °C 26.9 °F /  -2.8 °C 30.01in /  1016.1hPa WSW 2.0mph /  3.2km/h 3.0mph /  4.8km/h 77% 0.00in /  0mm 0 W/m2
23:53 33.4 °F /  0.8 °C 27.0 °F /  -2.8 °C 30.01in /  1016.1hPa WSW 1.0mph /  1.6km/h 2.0mph /  3.2km/h 77% 0.00in /  0mm 0 W/m2
23:59 33.3 °F /  0.7 °C 26.9 °F /  -2.8 °C 30.01in /  1016.1hPa WSW 1.0mph /  1.6km/h 3.0mph /  4.8km/h 77% 0.00in /  0mm 0 W/m2
Country Meadow, Clay, NY, USA
Compliments of Weather Underground - 2 mb